Time;durP1;ratioP1;P1;durP2;ratioP2;P2;SDS_P1;SDS_P2;PMS_P1;PMS_P2;Temp;Humidity;BMP_temperature;BMP_pressure;BME280_temperature;BME280_humidity;BME280_pressure;Samples;Min_cycle;Max_cycle;Signal;HPM_P1;HPM_P2
2023/01/03 00:02:03;;;;;;;18.33;13.05;;;;;;;3.79;87.00;99965.47;5107217;28;20103;-73
2023/01/03 00:04:30;;;;;;;16.67;13.02;;;;;;;4.12;87.11;100032.19;5106302;28;20139;-73
2023/01/03 00:06:57;;;;;;;16.80;13.18;;;;;;;4.05;87.09;100025.34;5107069;28;20050;-73
2023/01/03 00:09:25;;;;;;;18.23;13.52;;;;;;;4.05;87.07;100035.81;5106827;28;20051;-73
2023/01/03 00:14:41;;;;;;;17.15;13.48;;;;;;;3.59;87.17;99964.09;5106905;28;20044;-73
2023/01/03 00:17:09;;;;;;;17.10;13.55;;;;;;;3.97;87.23;100024.59;5106829;28;20119;-73
2023/01/03 00:19:41;;;;;;;14.45;12.05;;;;;;;4.02;87.13;100025.38;5106776;28;20215;-73
2023/01/03 00:22:08;;;;;;;16.42;12.30;;;;;;;3.79;87.16;99985.59;5106780;28;20065;-73
2023/01/03 00:24:35;;;;;;;17.63;12.38;;;;;;;4.05;87.11;100029.72;5105796;28;20036;-73
2023/01/03 00:27:04;;;;;;;14.88;11.45;;;;;;;3.28;86.99;99917.47;5106619;28;20044;-73
2023/01/03 00:29:31;;;;;;;14.95;11.93;;;;;;;3.78;87.06;99982.09;5106134;28;20208;-73
2023/01/03 00:31:58;;;;;;;17.23;12.68;;;;;;;4.01;86.96;100031.53;5106668;28;20063;-73
2023/01/03 00:34:25;;;;;;;15.77;12.52;;;;;;;4.00;87.03;100035.03;5105675;28;20307;-73
2023/01/03 00:36:52;;;;;;;15.55;12.05;;;;;;;3.99;87.10;100030.69;5106769;28;20108;-73
2023/01/03 00:39:19;;;;;;;16.35;13.23;;;;;;;3.98;87.04;100030.72;5105661;28;20036;-73
2023/01/03 00:41:46;;;;;;;15.88;11.60;;;;;;;3.98;87.01;100031.56;5105640;28;20050;-73
2023/01/03 00:44:14;;;;;;;17.92;13.05;;;;;;;3.97;87.05;100027.22;5105581;28;20040;-73
2023/01/03 00:46:41;;;;;;;16.73;11.38;;;;;;;3.40;86.86;99929.47;5105854;28;20040;-73
2023/01/03 00:49:08;;;;;;;16.55;11.82;;;;;;;3.99;86.87;100029.81;5106468;28;20036;-73
2023/01/03 00:51:37;;;;;;;16.63;12.85;;;;;;;3.33;86.72;99933.97;5105303;28;20036;-73
2023/01/03 00:54:06;;;;;;;18.00;12.80;;;;;;;3.77;86.77;99992.63;5105386;28;20058;-73
2023/01/03 00:56:35;;;;;;;17.77;13.95;;;;;;;3.95;86.77;100030.78;5105571;28;20292;-73
2023/01/03 00:59:03;;;;;;;16.00;13.40;;;;;;;3.55;86.85;99968.53;5106416;28;20191;-73
2023/01/03 01:01:33;;;;;;;17.40;13.82;;;;;;;3.93;86.89;100048.28;5106370;28;20277;-73
2023/01/03 01:04:04;;;;;;;18.55;12.93;;;;;;;3.93;87.28;100051.78;5106339;28;20099;-73
2023/01/03 01:06:33;;;;;;;16.63;12.90;;;;;;;3.94;87.14;100057.88;5105101;28;20356;-73
2023/01/03 01:09:02;;;;;;;19.80;14.52;;;;;;;3.94;86.91;100061.38;5105879;28;20040;-74
2023/01/03 01:11:30;;;;;;;21.75;14.65;;;;;;;3.94;87.04;100074.50;5105748;28;20211;-73
2023/01/03 01:13:57;;;;;;;18.48;13.30;;;;;;;2.54;87.12;99846.19;5104985;28;20324;-73
2023/01/03 01:16:26;;;;;;;23.02;15.77;;;;;;;3.90;87.01;100074.56;5105541;28;20114;-73
2023/01/03 01:18:55;;;;;;;17.55;13.68;;;;;;;3.89;87.07;100080.69;5105767;28;20039;-73
2023/01/03 01:21:23;;;;;;;16.73;13.15;;;;;;;3.84;87.06;100080.78;5106121;28;20274;-74
2023/01/03 01:23:51;;;;;;;16.42;12.25;;;;;;;3.78;87.01;100091.38;5105768;28;20039;-74
2023/01/03 01:26:20;;;;;;;17.13;12.60;;;;;;;3.55;87.17;100065.50;5106278;28;20040;-74
2023/01/03 01:28:47;;;;;;;18.38;13.35;;;;;;;3.72;87.30;100094.94;5106014;28;20314;-74
2023/01/03 01:31:16;;;;;;;17.35;12.25;;;;;;;3.75;87.40;100104.53;5104908;28;20118;-74
2023/01/03 01:33:43;;;;;;;15.27;12.43;;;;;;;3.71;87.24;100090.59;5106015;28;20103;-73
2023/01/03 01:36:16;;;;;;;20.50;15.13;;;;;;;3.73;87.35;100099.31;5105680;28;20312;-74
2023/01/03 01:38:42;;;;;;;14.60;12.55;;;;;;;3.74;87.32;100111.53;5104831;28;20038;-74
2023/01/03 01:41:13;;;;;;;15.65;12.65;;;;;;;3.72;87.30;100107.19;5106248;28;20049;-73
2023/01/03 01:46:40;;;;;;;16.90;12.93;;;;;;;3.49;87.59;100066.47;5105932;28;20036;-74
2023/01/03 01:49:12;;;;;;;19.08;13.82;;;;;;;2.46;87.46;99887.31;5104738;28;20051;-73
2023/01/03 01:51:42;;;;;;;17.60;12.40;;;;;;;3.76;87.40;100106.25;5106148;28;20103;-72
2023/01/03 01:54:09;;;;;;;17.17;13.10;;;;;;;3.76;87.44;100111.50;5105994;28;20338;-72
2023/01/03 01:56:40;;;;;;;21.85;13.18;;;;;;;3.75;87.47;100108.00;5106141;28;20051;-73
2023/01/03 01:59:08;;;;;;;21.15;15.07;;;;;;;3.74;87.56;100118.53;5106511;28;20184;-73
2023/01/03 02:01:39;;;;;;;15.10;13.00;;;;;;;3.53;87.39;100070.78;5107154;28;20040;-73
2023/01/03 02:04:09;;;;;;;19.20;14.30;;;;;;;3.72;87.50;100108.06;5109744;28;20243;-73
2023/01/03 02:06:38;;;;;;;19.30;14.13;;;;;;;3.72;87.61;100101.94;5109726;28;20066;-73
2023/01/03 02:09:06;;;;;;;18.23;13.85;;;;;;;3.75;87.59;100112.38;5109903;28;20040;-73
2023/01/03 02:11:42;;;;;;;18.83;14.18;;;;;;;3.78;87.54;100120.19;5109301;28;20048;-73
2023/01/03 02:14:25;;;;;;;22.33;16.40;;;;;;;2.76;87.53;99947.06;5109497;28;20351;-73
2023/01/03 02:17:05;;;;;;;19.33;14.75;;;;;;;3.77;87.66;100119.34;5109852;28;20035;-73
2023/01/03 02:20:01;;;;;;;19.88;15.05;;;;;;;3.76;87.87;100114.13;5108558;28;20311;-73
2023/01/03 02:22:45;;;;;;;;;;;;;;;3.69;88.02;100112.47;5109531;28;20050;-73
2023/01/03 02:25:45;;;;;;;18.48;13.93;;;;;;;3.46;88.23;100068.28;5079231;28;19916;-74
2023/01/03 02:28:50;;;;;;;22.40;14.68;;;;;;;3.46;88.16;100071.75;5109050;28;20062;-74
2023/01/03 02:31:24;;;;;;;19.85;14.35;;;;;;;3.12;88.23;100021.59;5108725;28;20036;-73
2023/01/03 02:33:59;;;;;;;20.38;14.80;;;;;;;3.70;88.24;100116.84;5108181;28;20316;-73
2023/01/03 02:36:35;;;;;;;18.95;13.88;;;;;;;3.55;88.10;100089.09;5108096;28;20048;-73
2023/01/03 02:39:09;;;;;;;17.33;12.90;;;;;;;3.70;88.09;100103.72;5109170;28;20299;-73
2023/01/03 02:41:44;;;;;;;18.45;13.57;;;;;;;3.70;88.01;100106.34;5108061;28;20039;-73
2023/01/03 02:44:18;;;;;;;20.38;14.85;;;;;;;3.67;88.00;100111.63;5107960;28;20054;-73
2023/01/03 02:46:50;;;;;;;19.27;14.40;;;;;;;3.27;88.01;100051.09;5109106;28;20039;-74
2023/01/03 02:49:22;;;;;;;20.65;13.23;;;;;;;3.63;88.03;100107.34;5107760;28;20119;-73
2023/01/03 02:51:54;;;;;;;17.13;12.80;;;;;;;3.62;88.14;100116.94;5108693;28;20040;-74
2023/01/03 02:54:27;;;;;;;19.55;12.27;;;;;;;3.59;88.03;100111.75;5108058;28;20044;-73
2023/01/03 02:57:02;;;;;;;17.55;12.02;;;;;;;3.35;87.77;100097.25;5109106;28;20058;-73
2023/01/03 02:59:36;;;;;;;14.07;11.48;;;;;;;3.49;87.90;100116.25;5107616;28;20314;-73
2023/01/03 03:02:07;;;;;;;16.00;12.65;;;;;;;3.25;88.09;100073.81;5107829;28;20054;-73
2023/01/03 03:04:37;;;;;;;17.05;12.43;;;;;;;3.50;88.12;100114.50;5108726;28;20280;-73
2023/01/03 03:07:09;;;;;;;18.15;13.30;;;;;;;3.52;88.10;100110.09;5108227;28;20078;-74
2023/01/03 03:13:11;;;;;;;16.88;13.43;;;;;;;3.53;87.88;100122.31;5108100;28;20039;-73
2023/01/03 03:15:12;;;;;;;17.75;12.35;;;;;;;2.87;88.07;100033.31;5108999;28;20036;-73
2023/01/03 03:17:42;;;;;;;17.17;13.07;;;;;;;3.51;88.33;100131.97;5108862;28;20046;-72
2023/01/03 03:25:52;;;;;;;16.40;12.65;;;;;;;3.58;88.08;100141.47;5108431;28;20218;-73
2023/01/03 03:28:36;;;;;;;17.80;13.57;;;;;;;3.61;88.00;100149.28;5107542;28;20044;-72
2023/01/03 03:31:06;;;;;;;16.95;13.10;;;;;;;3.63;87.95;100144.03;5108880;28;20036;-72
2023/01/03 03:33:40;;;;;;;13.35;10.77;;;;;;;3.64;88.03;100148.38;5108789;28;20048;-73
2023/01/03 03:36:15;;;;;;;15.25;12.18;;;;;;;3.64;88.03;100146.63;5109240;28;20230;-72
2023/01/03 03:38:44;;;;;;;15.50;13.05;;;;;;;3.66;88.16;100147.47;5108305;28;20056;-73
2023/01/03 03:47:08;;;;;;;15.85;11.75;;;;;;;3.68;87.90;100160.56;5108131;28;20093;-73
2023/01/03 03:49:36;;;;;;;15.80;11.35;;;;;;;3.70;87.93;100156.16;5108881;28;20111;-73
2023/01/03 03:52:07;;;;;;;17.92;13.40;;;;;;;3.71;87.91;100171.00;5107691;28;20067;-73
2023/01/03 03:54:38;;;;;;;15.85;11.68;;;;;;;3.62;87.91;100151.03;5107466;28;20081;-73
2023/01/03 03:57:11;;;;;;;18.25;13.27;;;;;;;3.73;88.00;100163.97;5106913;28;20040;-73
2023/01/03 03:59:41;;;;;;;14.68;11.73;;;;;;;3.77;87.99;100163.03;5107807;28;20036;-73
2023/01/03 04:02:10;;;;;;;17.27;12.90;;;;;;;3.76;88.10;100156.94;5107407;28;20040;-73
2023/01/03 04:04:44;;;;;;;18.17;14.13;;;;;;;3.80;88.15;100163.00;5107222;28;20031;-72
2023/01/03 04:07:11;;;;;;;22.50;15.07;;;;;;;3.81;88.14;100159.50;5107375;28;20118;-72
2023/01/03 04:09:38;;;;;;;20.25;15.20;;;;;;;3.82;88.41;100156.84;5107392;28;20040;-72
2023/01/03 04:12:05;;;;;;;26.52;17.13;;;;;;;3.82;88.56;100166.47;5106219;28;20056;-72
2023/01/03 04:14:32;;;;;;;22.70;15.98;;;;;;;3.83;88.71;100168.19;5106126;28;20036;-72
2023/01/03 04:16:59;;;;;;;25.45;16.50;;;;;;;3.46;88.79;100103.19;5106544;28;20036;-72
2023/01/03 04:19:26;;;;;;;23.42;16.42;;;;;;;3.84;88.96;100167.31;5106006;28;20036;-72
2023/01/03 04:21:54;;;;;;;22.52;16.83;;;;;;;3.84;89.00;100168.19;5105976;28;20058;-72
2023/01/03 04:24:21;;;;;;;20.38;16.13;;;;;;;3.85;88.82;100172.53;5105838;28;20036;-72
2023/01/03 04:26:48;;;;;;;24.00;16.27;;;;;;;3.89;88.92;100167.25;5106103;28;20196;-73
2023/01/03 04:29:15;;;;;;;22.75;15.98;;;;;;;3.91;88.77;100175.94;5105954;28;20042;-72
2023/01/03 04:31:42;;;;;;;22.30;15.00;;;;;;;3.93;88.68;100174.16;5106700;28;20074;-73
2023/01/03 04:34:08;;;;;;;20.40;15.98;;;;;;;3.92;88.79;100178.56;5105797;28;20039;-72
2023/01/03 04:36:35;;;;;;;22.17;17.08;;;;;;;3.91;88.77;100176.81;5107164;28;20040;-73
2023/01/03 04:39:03;;;;;;;18.92;14.68;;;;;;;3.92;88.69;100180.31;5106815;28;20048;-73
2023/01/03 04:41:30;;;;;;;19.08;14.70;;;;;;;3.93;88.79;100182.91;5107186;28;20036;-73
2023/01/03 04:44:03;;;;;;;17.67;13.73;;;;;;;3.94;88.77;100178.53;5107299;28;20052;-73
2023/01/03 04:46:31;;;;;;;17.67;13.75;;;;;;;3.94;88.73;100184.63;5106546;28;20040;-72
2023/01/03 04:48:58;;;;;;;17.63;13.50;;;;;;;3.94;88.77;100181.16;5106559;28;20059;-72
2023/01/03 04:51:25;;;;;;;16.65;13.70;;;;;;;3.23;88.65;100081.69;5106818;28;20036;-73
2023/01/03 04:53:52;;;;;;;16.92;14.57;;;;;;;3.95;88.61;100189.00;5106913;28;20039;-73
2023/01/03 04:56:25;;;;;;;17.35;14.00;;;;;;;3.95;88.60;100199.47;5106565;28;20051;-73
2023/01/03 04:58:53;;;;;;;17.35;14.55;;;;;;;3.95;88.56;100194.25;5105442;28;20304;-73
2023/01/03 05:01:21;;;;;;;19.70;14.73;;;;;;;3.96;88.61;100195.97;5105776;28;20098;-72
2023/01/03 05:03:48;;;;;;;20.13;14.75;;;;;;;3.96;88.66;100201.22;5106103;28;20046;-73
2023/01/03 05:06:15;;;;;;;16.48;12.80;;;;;;;3.98;88.61;100195.94;5106055;28;20040;-72
2023/01/03 05:08:44;;;;;;;20.00;14.45;;;;;;;3.97;88.54;100197.72;5106277;28;20048;-72
2023/01/03 05:11:11;;;;;;;17.27;12.90;;;;;;;3.99;88.28;100201.16;5105637;28;20055;-72
2023/01/03 05:13:39;;;;;;;19.60;13.35;;;;;;;3.59;88.23;100139.72;5106204;28;20054;-72
2023/01/03 05:16:08;;;;;;;18.15;13.07;;;;;;;3.99;88.12;100208.19;5105525;28;20066;-72
2023/01/03 05:18:35;;;;;;;19.88;13.85;;;;;;;3.90;88.18;100189.94;5106435;28;20183;-72
2023/01/03 05:26:31;;;;;;;20.33;13.63;;;;;;;3.97;88.04;100213.44;5105885;28;20040;-73
2023/01/03 05:28:59;;;;;;;18.08;12.55;;;;;;;3.98;88.10;100219.56;5105981;28;20107;-73
2023/01/03 05:31:26;;;;;;;15.13;11.95;;;;;;;3.98;87.98;100220.44;5105636;28;20168;-72
2023/01/03 05:33:53;;;;;;;18.92;13.73;;;;;;;3.97;87.94;100216.06;5105158;28;20040;-72
2023/01/03 05:36:20;;;;;;;15.27;12.55;;;;;;;3.98;87.90;100219.56;5105703;28;20070;-72
2023/01/03 05:38:46;;;;;;;14.80;11.65;;;;;;;3.98;87.79;100227.41;5105744;28;20050;-73
2023/01/03 05:41:58;;;;;;;17.30;13.43;;;;;;;3.97;87.68;100230.94;5104930;28;20054;-72
2023/01/03 05:44:02;;;;;;;18.17;12.10;;;;;;;3.94;87.61;100218.72;5104809;28;20046;-73
2023/01/03 05:46:29;;;;;;;20.05;13.30;;;;;;;3.93;87.68;100224.88;5105879;28;20169;-72
2023/01/03 05:48:55;;;;;;;17.40;13.35;;;;;;;3.57;87.57;100165.09;5105738;28;20288;-73
2023/01/03 05:51:23;;;;;;;18.02;13.82;;;;;;;3.94;87.68;100234.47;5104949;28;20300;-72
2023/01/03 05:53:50;;;;;;;17.80;13.38;;;;;;;3.93;87.63;100239.75;5105009;28;20054;-73
2023/01/03 05:56:17;;;;;;;18.88;13.63;;;;;;;3.91;87.52;100246.75;5105487;28;20040;-73
2023/01/03 05:58:43;;;;;;;20.40;14.65;;;;;;;3.91;87.59;100249.38;5104670;28;20043;-73
2023/01/03 06:01:15;;;;;;;16.25;13.55;;;;;;;3.70;87.51;100219.06;5106068;28;20032;-72
2023/01/03 06:03:44;;;;;;;17.58;13.77;;;;;;;3.90;87.52;100255.50;5104604;28;20042;-72
2023/01/03 06:06:12;;;;;;;20.42;14.65;;;;;;;3.88;87.54;100252.03;5105823;28;20054;-73
2023/01/03 06:08:39;;;;;;;18.08;13.43;;;;;;;3.79;87.64;100248.66;5104614;28;20189;-73
2023/01/03 06:11:06;;;;;;;16.83;13.13;;;;;;;3.88;87.66;100257.28;5087710;28;20078;-73
2023/01/03 06:13:33;;;;;;;19.25;14.13;;;;;;;3.90;87.75;100266.00;5105398;28;20046;-73
2023/01/03 06:18:49;;;;;;;18.40;14.00;;;;;;;3.90;87.57;100263.38;5104573;28;20051;-73
2023/01/03 06:21:16;;;;;;;18.73;12.93;;;;;;;3.90;87.60;100259.00;5105634;28;20028;-73
2023/01/03 06:23:44;;;;;;;19.08;14.57;;;;;;;3.90;87.64;100263.38;5087732;28;20039;-73
2023/01/03 06:26:11;;;;;;;18.85;14.27;;;;;;;2.96;87.46;100130.06;5105568;28;20086;-73
2023/01/03 06:28:38;;;;;;;18.65;13.20;;;;;;;3.90;87.46;100264.25;5105604;28;20338;-73
2023/01/03 06:31:05;;;;;;;20.83;14.52;;;;;;;3.88;87.81;100260.78;5105746;28;20040;-73
2023/01/03 06:33:32;;;;;;;20.60;13.57;;;;;;;3.85;87.82;100266.06;5105269;28;20044;-73
2023/01/03 06:36:04;;;;;;;19.90;14.68;;;;;;;3.85;87.75;100271.31;5104565;28;20046;-73
2023/01/03 06:38:31;;;;;;;21.13;15.48;;;;;;;3.89;87.79;100272.13;5106001;28;20218;-73
2023/01/03 06:40:58;;;;;;;17.05;12.85;;;;;;;2.91;87.42;100108.31;5105249;28;20044;-72
2023/01/03 06:43:26;;;;;;;18.45;12.43;;;;;;;3.89;87.55;100280.88;5104483;28;20231;-72
2023/01/03 06:54:09;;;;;;;17.13;12.48;;;;;;;3.92;87.57;100283.47;5109171;28;20060;-73
2023/01/03 06:56:35;;;;;;;17.58;12.90;;;;;;;3.96;87.53;100284.28;5109627;28;20042;-73
2023/01/03 06:59:02;;;;;;;16.38;12.10;;;;;;;3.80;87.51;100250.41;5108967;28;20039;-73
2023/01/03 07:01:29;;;;;;;15.27;10.82;;;;;;;4.05;87.47;100282.41;5109147;28;20040;-73
2023/01/03 07:03:56;;;;;;;14.93;10.32;;;;;;;4.11;87.55;100286.69;5108708;28;20044;-73
2023/01/03 07:06:24;;;;;;;12.75;10.18;;;;;;;4.18;87.26;100290.97;5108758;28;20043;-73
2023/01/03 07:08:51;;;;;;;13.60;10.35;;;;;;;3.94;87.23;100236.22;5108764;28;20097;-73
2023/01/03 07:11:17;;;;;;;16.27;9.95;;;;;;;4.34;87.17;100297.75;5107530;28;20085;-73
2023/01/03 07:13:58;;;;;;;11.35;9.32;;;;;;;4.40;87.08;100302.03;5107364;28;20048;-73
2023/01/03 07:16:26;;;;;;;13.25;9.07;;;;;;;4.45;86.90;100306.34;5108572;28;20059;-73
2023/01/03 07:18:54;;;;;;;14.27;9.43;;;;;;;4.26;86.84;100265.50;5108183;28;20043;-73
2023/01/03 07:21:21;;;;;;;11.38;8.60;;;;;;;4.53;86.71;100310.59;5107549;28;20036;-73
2023/01/03 07:23:49;;;;;;;10.98;7.88;;;;;;;4.58;86.66;100314.88;5107591;28;20069;-73
2023/01/03 07:26:16;;;;;;;11.88;8.98;;;;;;;4.38;86.69;100275.81;5108032;28;20388;-73
2023/01/03 07:28:43;;;;;;;10.80;8.65;;;;;;;4.69;86.74;100318.22;5107341;28;20342;-73
2023/01/03 07:31:09;;;;;;;10.95;7.50;;;;;;;4.76;86.50;100311.09;5108386;28;20043;-73
2023/01/03 07:33:38;;;;;;;9.95;7.38;;;;;;;4.84;87.01;100319.72;5108125;28;20052;-73
2023/01/03 07:36:07;;;;;;;8.45;7.57;;;;;;;4.92;87.04;100322.25;5108234;28;20284;-73
2023/01/03 07:38:33;;;;;;;9.55;7.55;;;;;;;5.01;87.12;100330.84;5108355;28;20039;-73
2023/01/03 07:41:02;;;;;;;13.45;9.50;;;;;;;5.11;87.00;100329.78;5107619;28;20044;-73
2023/01/03 07:43:37;;;;;;;9.90;7.70;;;;;;;5.20;86.75;100334.03;5108667;28;20036;-73
2023/01/03 07:46:10;;;;;;;12.77;8.35;;;;;;;5.07;86.63;100298.34;5107967;28;20052;-73
2023/01/03 07:48:37;;;;;;;9.40;7.43;;;;;;;5.39;86.41;100331.94;5107290;28;20043;-73
2023/01/03 07:51:07;;;;;;;7.85;6.20;;;;;;;5.12;86.16;100276.34;5107784;28;20065;-73
2023/01/03 07:53:34;;;;;;;9.65;7.43;;;;;;;5.58;85.89;100340.34;5107879;28;20039;-73
2023/01/03 07:56:05;;;;;;;8.27;6.53;;;;;;;5.65;85.53;100341.94;5107586;28;20039;-73
2023/01/03 07:58:32;;;;;;;6.63;5.82;;;;;;;5.71;85.62;100362.88;5106306;28;20189;-73
2023/01/03 08:01:03;;;;;;;11.98;6.85;;;;;;;5.76;85.26;100351.38;5107473;28;20039;-73
2023/01/03 08:03:30;;;;;;;11.90;5.70;;;;;;;5.83;85.00;100348.63;5107757;28;20044;-73
2023/01/03 08:06:00;;;;;;;8.60;6.43;;;;;;;5.87;84.94;100348.53;5106472;28;20048;-73
2023/01/03 08:08:27;;;;;;;7.72;6.10;;;;;;;5.94;84.73;100349.25;5107738;28;20100;-73
2023/01/03 08:13:39;;;;;;;9.70;6.85;;;;;;;5.69;84.30;100293.66;5107510;28;20067;-73
2023/01/03 08:16:09;;;;;;;9.60;6.05;;;;;;;6.12;84.17;100363.81;5106461;28;20042;-73
2023/01/03 08:18:35;;;;;;;10.55;6.70;;;;;;;6.16;84.07;100370.72;5107509;28;20082;-73
2023/01/03 08:21:03;;;;;;;12.15;6.20;;;;;;;6.21;83.86;100368.88;5107183;28;20036;-73
2023/01/03 08:23:30;;;;;;;8.15;5.78;;;;;;;6.25;83.90;100366.13;5107840;28;20046;-73
2023/01/03 08:25:59;;;;;;;7.25;6.30;;;;;;;6.31;83.83;100368.63;5107425;28;20043;-73
2023/01/03 08:28:26;;;;;;;8.38;5.90;;;;;;;6.01;83.64;100309.63;5107199;28;20058;-73
2023/01/03 08:30:55;;;;;;;9.50;6.07;;;;;;;6.44;83.74;100369.25;5107085;28;20039;-73
2023/01/03 08:33:22;;;;;;;8.70;6.88;;;;;;;6.11;83.71;100312.94;5106244;28;20097;-73
2023/01/03 08:35:52;;;;;;;9.15;7.03;;;;;;;6.28;83.65;100334.47;5105991;28;20252;-73
2023/01/03 08:38:25;;;;;;;10.95;8.07;;;;;;;6.53;83.63;100382.19;5106767;28;20189;-73
2023/01/03 08:40:52;;;;;;;10.95;8.05;;;;;;;6.56;83.83;100381.25;5105916;28;20127;-73
2023/01/03 08:43:19;;;;;;;15.23;10.93;;;;;;;6.36;83.85;100342.22;5105913;28;20040;-73
2023/01/03 08:45:48;;;;;;;22.77;14.30;;;;;;;6.23;83.69;100309.16;5107380;28;20051;-73
2023/01/03 08:48:19;;;;;;;21.55;15.40;;;;;;;6.58;83.76;100375.06;5106987;28;20045;-73
2023/01/03 08:50:46;;;;;;;22.92;14.43;;;;;;;6.60;84.06;100372.41;5106660;28;20040;-73
2023/01/03 08:53:13;;;;;;;17.25;14.73;;;;;;;6.60;83.97;100378.53;5088907;28;20036;-73
2023/01/03 08:55:39;;;;;;;20.15;13.50;;;;;;;6.62;84.12;100379.34;5106464;28;20044;-73
2023/01/03 08:58:07;;;;;;;22.42;14.05;;;;;;;6.64;84.10;100385.47;5106018;28;20189;-73
2023/01/03 09:00:35;;;;;;;13.57;10.55;;;;;;;6.67;84.11;100381.88;5106459;28;20032;-73
2023/01/03 09:03:02;;;;;;;15.10;11.00;;;;;;;6.37;83.82;100325.50;5107014;28;20062;-73
2023/01/03 09:05:36;;;;;;;17.20;10.75;;;;;;;6.74;83.65;100391.38;5105978;28;20312;-73
2023/01/03 09:08:03;;;;;;;14.25;9.88;;;;;;;6.77;83.74;100388.69;5106761;28;20051;-73
2023/01/03 09:10:30;;;;;;;17.95;14.20;;;;;;;6.82;83.98;100388.59;5105426;28;20044;-73
2023/01/03 09:12:57;;;;;;;15.65;13.57;;;;;;;6.88;83.98;100388.47;5105788;28;20219;-73
2023/01/03 09:15:23;;;;;;;14.93;11.80;;;;;;;6.09;83.63;100256.81;5106641;28;20183;-73
2023/01/03 09:17:50;;;;;;;14.18;10.57;;;;;;;6.98;83.62;100396.09;5106403;28;20043;-73
2023/01/03 09:20:18;;;;;;;13.95;10.32;;;;;;;7.04;83.58;100393.31;5106198;28;20050;-73
2023/01/03 09:22:46;;;;;;;10.73;8.75;;;;;;;7.11;83.59;100394.03;5105280;28;20077;-73
2023/01/03 09:25:13;;;;;;;10.98;6.30;;;;;;;7.20;83.34;100400.84;5106045;28;20071;-73
2023/01/03 09:27:44;;;;;;;9.00;6.25;;;;;;;7.27;82.63;100399.81;5105980;28;20063;-73
2023/01/03 09:30:12;;;;;;;7.43;5.78;;;;;;;7.34;82.66;100394.38;5106016;28;20036;-73
2023/01/03 09:32:39;;;;;;;7.93;6.10;;;;;;;6.96;82.29;100329.38;5105236;28;20040;-73
2023/01/03 09:35:06;;;;;;;8.43;5.88;;;;;;;7.46;82.30;100397.59;5105905;28;20315;-73
2023/01/03 09:37:33;;;;;;;6.30;5.70;;;;;;;7.51;81.80;100400.97;5106219;28;20191;-73
2023/01/03 09:40:02;;;;;;;7.05;5.97;;;;;;;7.56;81.44;100399.09;5104724;28;20318;-73
2023/01/03 09:45:17;;;;;;;8.57;6.05;;;;;;;7.58;81.38;100376.16;5105256;28;20046;-73
2023/01/03 09:47:45;;;;;;;8.13;6.15;;;;;;;7.61;81.27;100369.03;5105413;28;20036;-73
2023/01/03 09:50:19;;;;;;;8.38;5.53;;;;;;;7.77;80.98;100384.44;5105349;28;20099;-73
2023/01/03 10:04:27;;;;;;;10.00;5.30;;;;;;;7.75;80.53;100325.56;5105497;28;20040;-73
2023/01/03 10:07:05;;;;;;;5.20;4.40;;;;;;;8.14;80.11;100384.28;5105287;28;20036;-73
2023/01/03 10:09:40;;;;;;;8.57;5.65;;;;;;;8.19;80.20;100380.59;5105596;28;20040;-73
2023/01/03 10:12:21;;;;;;;5.63;4.50;;;;;;;8.20;79.94;100370.91;5104145;28;20063;-73
2023/01/03 10:15:02;;;;;;;6.95;4.88;;;;;;;8.22;79.74;100367.31;5105391;28;20058;-73
2023/01/03 10:17:35;;;;;;;7.28;4.97;;;;;;;7.81;79.70;100286.69;5105772;28;20036;-73
2023/01/03 10:20:19;;;;;;;5.22;4.40;;;;;;;8.13;79.57;100332.38;5105863;28;20055;-73
2023/01/03 10:22:47;;;;;;;7.72;4.40;;;;;;;8.34;79.94;100358.16;5106340;28;20039;-73
2023/01/03 10:25:17;;;;;;;8.57;4.57;;;;;;;8.35;79.54;100363.38;5108911;28;20101;-74
2023/01/03 10:27:48;;;;;;;8.32;4.80;;;;;;;7.83;79.76;100271.66;5109428;28;20032;-73
2023/01/03 10:30:18;;;;;;;6.05;4.38;;;;;;;8.43;79.58;100365.78;5109087;28;20072;-73
2023/01/03 10:33:14;;;;;;;6.82;5.55;;;;;;;8.45;79.21;100369.25;5108178;28;20046;-73
2023/01/03 10:35:40;;;;;;;7.40;4.78;;;;;;;8.48;79.54;100360.38;5102901;28;20326;-73
2023/01/03 10:38:10;;;;;;;7.95;5.68;;;;;;;8.51;79.49;100368.19;5109102;28;20303;-74
2023/01/03 10:40:41;;;;;;;5.75;4.68;;;;;;;8.12;79.33;100304.25;5109087;28;20051;-73
2023/01/03 10:43:28;;;;;;;6.13;4.85;;;;;;;5.42;78.12;99824.50;5109459;28;20036;-73
2023/01/03 10:45:57;;;;;;;6.20;5.03;;;;;;;8.59;79.31;100369.69;5109145;28;20047;-73
2023/01/03 10:48:25;;;;;;;9.38;4.97;;;;;;;8.64;79.13;100364.28;5108765;28;20200;-73
2023/01/03 10:50:52;;;;;;;6.78;5.05;;;;;;;8.68;78.98;100350.91;5108856;28;20036;-73
2023/01/03 10:53:22;;;;;;;6.30;4.43;;;;;;;8.72;78.84;100353.47;5109024;28;20152;-73
2023/01/03 10:55:52;;;;;;;7.72;4.78;;;;;;;8.76;78.86;100363.88;5109328;28;20056;-73
2023/01/03 10:58:26;;;;;;;5.53;4.28;;;;;;;8.63;78.08;100322.91;5109181;28;20035;-73
2023/01/03 11:00:54;;;;;;;6.43;4.50;;;;;;;8.90;78.34;100361.66;5107536;28;20130;-73
2023/01/03 11:03:23;;;;;;;6.97;5.10;;;;;;;8.95;78.15;100359.75;5108383;28;20062;-73
2023/01/03 11:06:07;;;;;;;6.57;4.65;;;;;;;9.03;77.00;100356.84;5108199;28;20098;-73
2023/01/03 11:08:42;;;;;;;5.53;3.97;;;;;;;9.04;77.55;100361.22;5107897;28;20068;-73
2023/01/03 11:11:27;;;;;;;7.68;5.75;;;;;;;9.10;76.48;100361.00;5108598;28;20048;-73
2023/01/03 11:14:10;;;;;;;7.15;4.43;;;;;;;9.12;76.57;100353.91;5107749;28;20040;-73
2023/01/03 11:16:37;;;;;;;7.22;4.07;;;;;;;9.14;77.10;100348.56;5108250;28;20089;-73
2023/01/03 11:19:06;;;;;;;5.95;4.57;;;;;;;9.14;77.25;100352.06;5107266;28;20048;-73
2023/01/03 11:21:39;;;;;;;7.30;4.65;;;;;;;9.14;77.12;100353.84;5108132;28;20074;-73
2023/01/03 11:24:15;;;;;;;6.28;4.85;;;;;;;8.58;77.00;100262.28;5108186;28;20205;-73
2023/01/03 11:26:50;;;;;;;5.35;3.70;;;;;;;8.45;76.64;100242.44;5108493;28;20039;-73
2023/01/03 11:29:24;;;;;;;;;;;;;;;9.03;74.57;100343.63;5108399;28;20052;-73
2023/01/03 11:31:57;;;;;;;7.00;4.57;;;;;;;8.85;76.92;100313.38;5107690;28;20015;-73
2023/01/03 11:34:41;;;;;;;5.97;4.55;;;;;;;8.97;76.11;100334.09;5106820;28;20040;-73
2023/01/03 11:37:17;;;;;;;5.57;3.90;;;;;;;8.18;76.82;100209.88;5107785;28;20039;-73
2023/01/03 11:39:59;;;;;;;7.70;4.13;;;;;;;9.02;76.12;100338.38;5108036;28;20040;-73
2023/01/03 11:42:37;;;;;;;7.38;4.70;;;;;;;9.03;76.12;100337.47;5108398;28;20040;-73
2023/01/03 11:45:37;;;;;;;6.90;4.97;;;;;;;9.04;75.65;100334.78;5107497;28;20047;-73
2023/01/03 11:48:22;;;;;;;6.35;4.68;;;;;;;9.03;75.85;100334.81;5107795;28;20039;-73
2023/01/03 11:50:54;;;;;;;5.25;3.78;;;;;;;8.41;76.60;100227.63;5106817;28;20058;-73
2023/01/03 11:53:34;;;;;;;6.20;4.10;;;;;;;9.05;76.37;100331.22;5108126;28;20032;-73
2023/01/03 11:56:20;;;;;;;7.40;3.90;;;;;;;9.05;76.00;100331.22;5107891;28;20238;-73
2023/01/03 11:58:57;;;;;;;7.57;4.57;;;;;;;9.04;76.33;100328.63;5107957;28;20043;-74
2023/01/03 12:01:40;;;;;;;4.72;3.67;;;;;;;9.03;75.97;100327.75;5107830;28;20035;-74
2023/01/03 12:04:23;;;;;;;6.10;3.90;;;;;;;9.00;75.46;100326.06;5107351;28;20036;-73
2023/01/03 12:07:03;;;;;;;6.40;3.60;;;;;;;8.82;76.29;100286.16;5107026;28;20112;-74
2023/01/03 12:09:37;;;;;;;6.78;4.38;;;;;;;9.00;76.78;100323.44;5107677;28;20101;-74
2023/01/03 12:12:22;;;;;;;6.13;5.03;;;;;;;9.01;76.19;100329.59;5106298;28;20047;-74
2023/01/03 12:14:55;;;;;;;9.38;7.25;;;;;;;8.68;76.85;100266.34;5107521;28;20103;-73
2023/01/03 12:17:29;;;;;;;11.65;6.28;;;;;;;8.92;77.13;100308.75;5107649;28;20052;-74
2023/01/03 12:20:01;;;;;;;9.57;5.53;;;;;;;9.10;76.79;100317.84;5107274;28;20036;-73
2023/01/03 12:22:37;;;;;;;7.93;4.78;;;;;;;9.02;76.63;100307.53;5106298;28;20111;-73
2023/01/03 12:25:15;;;;;;;7.75;4.75;;;;;;;8.76;76.66;100266.09;5107139;28;20036;-74
2023/01/03 12:27:46;;;;;;;6.60;4.97;;;;;;;8.88;76.29;100286.81;5106775;28;20085;-74
2023/01/03 12:30:29;;;;;;;6.18;4.63;;;;;;;9.08;75.92;100320.53;5106199;28;20046;-73
2023/01/03 12:33:05;;;;;;;7.13;4.68;;;;;;;9.03;76.22;100325.13;5106374;28;20055;-73
2023/01/03 12:35:38;;;;;;;5.47;4.20;;;;;;;9.04;76.53;100320.69;5106987;28;20078;-74